Time;durP1;ratioP1;P1;durP2;ratioP2;P2;SDS_P1;SDS_P2;PMS_P1;PMS_P2;Temp;Humidity;BMP_temperature;BMP_pressure;BME280_temperature;BME280_humidity;BME280_pressure;Samples;Min_cycle;Max_cycle;Signal;HPM_P1;HPM_P2
2023/07/03 00:03:30;;;;;;;6.50;4.53;;;;;;;16.04;100.00;97784.41;15255146;19;20022;-45
2023/07/03 00:08:56;;;;;;;5.93;4.00;;;;;;;16.04;100.00;97790.66;15257180;19;20044;-45
2023/07/03 00:14:20;;;;;;;7.82;4.13;;;;;;;16.02;100.00;97779.16;15257420;19;21027;-45
2023/07/03 00:19:49;;;;;;;8.23;4.60;;;;;;;16.00;100.00;97775.81;15258694;19;20070;-44
2023/07/03 00:25:15;;;;;;;6.53;4.25;;;;;;;15.97;100.00;97779.78;15258701;19;20011;-46
2023/07/03 00:30:40;;;;;;;5.97;4.38;;;;;;;15.97;100.00;97773.53;15252533;19;20011;-45
2023/07/03 00:36:09;;;;;;;6.40;4.35;;;;;;;15.96;100.00;97772.69;15257560;19;20019;-46
2023/07/03 00:41:41;;;;;;;6.60;4.53;;;;;;;15.95;100.00;97776.44;15254225;19;20026;-45
2023/07/03 00:47:07;;;;;;;7.00;4.15;;;;;;;15.94;100.00;97769.34;15255076;19;20011;-45
2023/07/03 00:52:35;;;;;;;5.22;4.20;;;;;;;15.95;100.00;97764.75;15257632;19;20031;-47
2023/07/03 00:58:01;;;;;;;5.93;4.25;;;;;;;15.93;100.00;97756.84;15254356;19;20014;-45
2023/07/03 01:03:35;;;;;;;5.40;4.32;;;;;;;15.96;100.00;97753.66;15254518;19;20022;-46
2023/07/03 01:09:04;;;;;;;5.72;4.30;;;;;;;16.00;100.00;97751.38;15252412;19;20273;-48
2023/07/03 01:14:30;;;;;;;5.80;4.40;;;;;;;15.99;100.00;97750.53;15263377;19;20498;-46
2023/07/03 01:19:56;;;;;;;5.63;4.40;;;;;;;15.93;100.00;97748.69;15272508;19;20812;-45
2023/07/03 01:25:29;;;;;;;6.95;4.32;;;;;;;15.84;100.00;97753.50;15270164;19;20021;-44
2023/07/03 01:30:57;;;;;;;7.35;4.65;;;;;;;15.74;100.00;97752.22;15266726;19;20026;-47
2023/07/03 01:36:23;;;;;;;6.00;4.57;;;;;;;15.70;100.00;97741.78;15264871;19;20026;-44
2023/07/03 01:41:58;;;;;;;6.03;4.50;;;;;;;15.62;100.00;97750.16;15265450;19;20353;-47
2023/07/03 01:47:24;;;;;;;6.28;4.68;;;;;;;15.61;100.00;97748.47;15276355;19;20531;-45
2023/07/03 01:52:54;;;;;;;7.47;4.60;;;;;;;15.50;100.00;97746.41;15279208;19;20014;-47
2023/07/03 01:58:32;;;;;;;6.43;4.57;;;;;;;15.43;100.00;97742.88;15272764;19;20013;-43
2023/07/03 02:04:02;;;;;;;6.15;4.57;;;;;;;15.36;100.00;97749.13;15279345;19;20074;-43
2023/07/03 02:09:35;;;;;;;6.07;4.65;;;;;;;15.32;100.00;97745.16;15274228;19;20016;-52
2023/07/03 02:15:06;;;;;;;6.82;4.70;;;;;;;15.25;100.00;97753.31;15275521;19;20018;-45
2023/07/03 02:20:32;;;;;;;7.75;4.63;;;;;;;15.21;100.00;97756.66;14765357;19;10000544;-43
2023/07/03 02:25:57;;;;;;;7.32;5.28;;;;;;;15.19;100.00;97762.25;15270290;19;20018;-44
2023/07/03 02:31:24;;;;;;;6.63;4.70;;;;;;;15.11;100.00;97770.59;15271851;19;20086;-45
2023/07/03 02:36:50;;;;;;;7.07;5.10;;;;;;;15.05;100.00;97772.25;15270061;19;20530;-46
2023/07/03 02:42:21;;;;;;;5.85;4.80;;;;;;;14.98;100.00;97770.59;15266555;19;20029;-45
2023/07/03 02:47:50;;;;;;;7.03;5.22;;;;;;;14.88;100.00;97770.97;15263582;19;20014;-44
2023/07/03 02:53:17;;;;;;;8.85;5.13;;;;;;;14.75;100.00;97778.06;15268113;19;20463;-45
2023/07/03 02:58:49;;;;;;;6.68;4.93;;;;;;;14.60;100.00;97775.44;15266075;19;20314;-46
2023/07/03 03:04:20;;;;;;;6.63;5.28;;;;;;;14.43;100.00;97774.97;15268896;19;20094;-46
2023/07/03 03:09:45;;;;;;;7.00;5.03;;;;;;;14.29;100.00;97775.94;15270478;19;20511;-43
2023/07/03 03:15:11;;;;;;;9.82;5.47;;;;;;;14.13;100.00;97767.13;15263896;19;20475;-45
2023/07/03 03:20:39;;;;;;;7.00;5.20;;;;;;;13.95;100.00;97781.19;15273176;19;20031;-45
2023/07/03 03:26:06;;;;;;;10.25;5.47;;;;;;;13.87;100.00;97775.94;15270833;19;20022;-47
2023/07/03 03:31:31;;;;;;;7.47;5.40;;;;;;;13.82;100.00;97784.63;15264551;19;20021;-45
2023/07/03 03:36:58;;;;;;;8.60;5.70;;;;;;;13.82;100.00;97784.63;15267939;19;20017;-47
2023/07/03 03:42:30;;;;;;;7.10;5.35;;;;;;;13.86;100.00;97780.50;15278292;19;20014;-47
2023/07/03 03:47:56;;;;;;;7.93;5.55;;;;;;;13.90;100.00;97785.53;15269213;19;20010;-45
2023/07/03 03:53:25;;;;;;;8.27;5.45;;;;;;;13.95;100.00;97789.31;15274876;19;20548;-47
2023/07/03 03:58:50;;;;;;;8.30;5.45;;;;;;;13.97;100.00;97795.38;15277600;19;20014;-45
2023/07/03 04:04:15;;;;;;;10.40;5.30;;;;;;;14.02;100.00;97801.03;15275707;19;20014;-44
2023/07/03 04:09:43;;;;;;;11.07;5.70;;;;;;;14.09;100.00;97792.94;15274606;19;20384;-45
2023/07/03 04:15:08;;;;;;;8.45;5.25;;;;;;;14.18;100.00;97799.84;15274843;19;21384;-46
2023/07/03 04:20:33;;;;;;;11.57;7.38;;;;;;;14.23;100.00;97801.13;15275805;19;20016;-45
2023/07/03 04:26:02;;;;;;;9.23;5.97;;;;;;;14.22;100.00;97813.00;15273727;19;20405;-45
2023/07/03 04:31:27;;;;;;;10.43;5.70;;;;;;;14.23;100.00;97811.97;15272621;19;20033;-46
2023/07/03 04:36:52;;;;;;;8.45;5.10;;;;;;;14.25;100.00;97812.63;15272068;19;20026;-44
2023/07/03 04:42:32;;;;;;;9.07;5.47;;;;;;;14.28;100.00;97809.53;15274750;19;20031;-46
2023/07/03 04:47:57;;;;;;;8.52;5.25;;;;;;;14.38;100.00;97822.69;15264619;19;20038;-46
2023/07/03 04:53:23;;;;;;;9.13;5.13;;;;;;;14.51;100.00;97828.16;15273140;19;20018;-46
2023/07/03 04:58:51;;;;;;;7.53;4.82;;;;;;;14.63;100.00;97834.69;15274055;19;20010;-48
2023/07/03 05:04:15;;;;;;;8.15;4.75;;;;;;;14.82;100.00;97836.88;15271112;19;20390;-46
2023/07/03 05:09:40;;;;;;;7.97;4.68;;;;;;;15.06;100.00;97828.19;15270632;19;20010;-47
2023/07/03 05:15:08;;;;;;;11.60;4.90;;;;;;;15.31;100.00;97819.47;15271594;19;20466;-43
2023/07/03 05:20:33;;;;;;;8.35;4.45;;;;;;;15.50;100.00;97830.56;15267946;19;20025;-43
2023/07/03 05:25:57;;;;;;;8.50;4.78;;;;;;;15.65;100.00;97831.19;15271494;19;20018;-44
2023/07/03 05:31:25;;;;;;;8.90;4.75;;;;;;;15.75;100.00;97813.63;15267670;19;20677;-43
2023/07/03 05:36:50;;;;;;;8.35;4.35;;;;;;;15.87;100.00;97820.16;15269408;19;20014;-48
2023/07/03 05:42:21;;;;;;;8.10;4.78;;;;;;;15.96;100.00;97816.16;15263839;19;20054;-49
2023/07/03 05:47:49;;;;;;;13.07;5.43;;;;;;;15.97;100.00;97823.25;15266294;19;20010;-44
2023/07/03 05:53:13;;;;;;;7.65;4.82;;;;;;;15.99;100.00;97818.47;15260118;19;20495;-44
2023/07/03 05:58:42;;;;;;;10.35;5.05;;;;;;;16.08;100.00;97827.22;15270876;19;20031;-44
2023/07/03 06:04:11;;;;;;;9.43;5.22;;;;;;;16.20;100.00;97821.97;15280606;19;20463;-46
2023/07/03 06:09:37;;;;;;;8.52;4.65;;;;;;;16.31;100.00;97832.19;15280685;19;20447;-48
2023/07/03 06:15:01;;;;;;;9.20;4.57;;;;;;;16.44;100.00;97822.31;15279294;19;20002;-45
2023/07/03 06:20:30;;;;;;;8.88;4.60;;;;;;;16.55;100.00;97831.72;15283202;19;20007;-48
2023/07/03 06:25:54;;;;;;;11.88;4.78;;;;;;;16.74;100.00;97830.78;15277449;19;20078;-44
2023/07/03 06:31:19;;;;;;;9.98;4.30;;;;;;;17.01;100.00;97854.34;15274382;19;20014;-44
2023/07/03 06:36:46;;;;;;;8.00;4.15;;;;;;;17.22;100.00;97845.03;15278447;19;20029;-52
2023/07/03 06:42:17;;;;;;;8.88;4.10;;;;;;;17.38;100.00;97830.06;15274422;19;20011;-51
2023/07/03 06:47:44;;;;;;;6.68;3.60;;;;;;;17.58;100.00;97837.25;15274018;19;20011;-45
2023/07/03 06:53:11;;;;;;;6.38;3.22;;;;;;;17.69;100.00;97823.75;15275197;19;20018;-46
2023/07/03 06:58:37;;;;;;;7.13;3.55;;;;;;;17.84;100.00;97847.13;15268202;19;20586;-45
2023/07/03 07:04:02;;;;;;;7.45;3.17;;;;;;;18.00;100.00;97841.09;15278247;19;20078;-44
2023/07/03 07:09:30;;;;;;;6.50;2.72;;;;;;;18.22;100.00;97820.78;15275436;19;20014;-48
2023/07/03 07:14:54;;;;;;;5.57;3.03;;;;;;;18.14;100.00;97833.66;15273507;19;20014;-45
2023/07/03 07:20:19;;;;;;;6.65;2.90;;;;;;;18.15;100.00;97834.47;15277065;19;20021;-48
2023/07/03 07:25:46;;;;;;;5.65;2.80;;;;;;;17.99;100.00;97834.00;15273710;19;20029;-49
2023/07/03 07:31:21;;;;;;;7.20;2.80;;;;;;;17.96;100.00;97833.56;15267081;19;20010;-45
2023/07/03 07:36:47;;;;;;;8.52;2.95;;;;;;;17.95;100.00;97840.94;15271476;19;20014;-48
2023/07/03 07:42:22;;;;;;;7.25;2.97;;;;;;;17.84;100.00;97834.31;15269129;19;20010;-51
2023/07/03 07:47:47;;;;;;;9.85;3.00;;;;;;;17.74;100.00;97842.16;15275694;19;20006;-45
2023/07/03 07:53:11;;;;;;;8.63;3.05;;;;;;;17.69;100.00;97842.00;15271445;19;20066;-46
2023/07/03 07:58:40;;;;;;;8.95;3.00;;;;;;;17.81;100.00;97842.94;15270741;19;20368;-46
2023/07/03 08:04:05;;;;;;;7.35;3.00;;;;;;;17.93;100.00;97861.31;15271279;19;20070;-47
2023/07/03 08:09:30;;;;;;;10.32;3.42;;;;;;;17.97;100.00;97857.94;15273904;19;20017;-46
2023/07/03 08:14:57;;;;;;;6.50;2.60;;;;;;;18.22;100.00;97851.63;15273700;19;20079;-44
2023/07/03 08:20:22;;;;;;;6.18;2.63;;;;;;;18.67;100.00;97846.94;15272432;19;20013;-45
2023/07/03 08:25:46;;;;;;;5.82;2.70;;;;;;;18.69;100.00;97847.56;15272081;19;20014;-45
2023/07/03 08:31:14;;;;;;;7.35;2.80;;;;;;;18.38;100.00;97852.06;15269724;19;20094;-46
2023/07/03 08:36:39;;;;;;;6.88;2.90;;;;;;;18.32;100.00;97859.25;15268182;19;20081;-46
2023/07/03 08:42:23;;;;;;;7.97;2.80;;;;;;;18.36;100.00;97862.38;15267814;19;20020;-46
2023/07/03 08:47:54;;;;;;;8.43;2.90;;;;;;;18.34;100.00;97854.44;15271686;19;20460;-43
2023/07/03 08:53:23;;;;;;;7.40;2.80;;;;;;;18.33;100.00;97866.41;15268319;19;20010;-43
2023/07/03 08:58:49;;;;;;;6.47;2.70;;;;;;;18.30;100.00;97851.31;15272960;19;20011;-45
2023/07/03 09:04:36;;;;;;;7.18;2.90;;;;;;;18.55;100.00;97857.78;15269708;19;20011;-44
2023/07/03 09:10:09;;;;;;;6.05;2.70;;;;;;;18.89;100.00;97861.78;15267726;19;20022;-47
2023/07/03 09:15:39;;;;;;;6.60;2.80;;;;;;;19.31;100.00;97861.06;15270951;19;20066;-45
2023/07/03 09:21:09;;;;;;;6.72;2.70;;;;;;;19.24;95.68;97868.50;15269281;19;20018;-43
2023/07/03 09:26:41;;;;;;;6.20;2.90;;;;;;;19.23;97.56;97869.56;15266922;19;20014;-46
2023/07/03 09:32:06;;;;;;;9.57;2.83;;;;;;;19.22;92.99;97876.09;15268733;19;20010;-46
2023/07/03 09:37:35;;;;;;;8.70;2.50;;;;;;;19.26;91.93;97863.63;15279547;19;20026;-47
2023/07/03 09:43:08;;;;;;;5.10;2.28;;;;;;;19.31;84.12;97861.06;15281457;19;20018;-44
2023/07/03 09:48:35;;;;;;;5.97;2.50;;;;;;;19.28;88.09;97866.97;15278442;19;20010;-46
2023/07/03 09:54:05;;;;;;;5.15;2.30;;;;;;;19.29;95.78;97874.09;15275332;19;20022;-44
2023/07/03 09:59:33;;;;;;;4.78;2.20;;;;;;;19.23;88.74;97875.00;15281527;19;20361;-47
2023/07/03 10:04:57;;;;;;;4.78;2.17;;;;;;;19.22;91.29;97868.75;15279939;19;20015;-47
2023/07/03 10:10:28;;;;;;;7.07;2.55;;;;;;;19.46;83.85;97873.47;15275493;19;20035;-46
2023/07/03 10:15:57;;;;;;;5.80;2.10;;;;;;;19.59;81.86;97872.44;15278330;19;20299;-46
2023/07/03 10:21:24;;;;;;;5.18;2.13;;;;;;;19.91;81.16;97864.81;15279496;19;20106;-45
2023/07/03 10:26:57;;;;;;;6.47;2.10;;;;;;;19.66;80.92;97867.69;15278879;19;20535;-45
2023/07/03 10:32:27;;;;;;;6.75;2.47;;;;;;;19.70;80.04;97875.16;15276191;19;20475;-43
2023/07/03 10:37:59;;;;;;;5.80;1.90;;;;;;;19.75;76.49;97881.84;15276421;19;20096;-46
2023/07/03 10:43:31;;;;;;;5.90;2.20;;;;;;;19.82;73.88;97868.91;15274250;19;20006;-48
2023/07/03 10:48:58;;;;;;;5.00;1.95;;;;;;;19.97;75.07;97861.13;15279468;19;20002;-45
2023/07/03 10:54:28;;;;;;;5.72;2.10;;;;;;;20.07;72.50;97865.16;15271227;19;20085;-50
2023/07/03 11:00:05;;;;;;;4.60;1.80;;;;;;;19.80;74.89;97863.69;15277511;19;20025;-49
2023/07/03 11:05:37;;;;;;;4.82;1.70;;;;;;;19.83;73.90;97873.28;15171046;19;2004245;-45
2023/07/03 11:11:11;;;;;;;7.72;2.10;;;;;;;20.27;72.24;97868.41;15276016;19;20006;-47
2023/07/03 11:16:51;;;;;;;6.97;2.00;;;;;;;19.97;69.00;97876.69;15268669;19;20013;-44
2023/07/03 11:22:24;;;;;;;3.55;1.60;;;;;;;20.15;68.70;97878.50;15279849;19;20010;-47
2023/07/03 11:28:00;;;;;;;3.85;1.83;;;;;;;20.01;67.85;97884.19;15270995;19;20300;-44
2023/07/03 11:33:29;;;;;;;3.40;1.67;;;;;;;20.02;68.11;97869.44;15269350;19;20842;-46
2023/07/03 11:39:19;;;;;;;3.47;1.60;;;;;;;19.96;66.95;97875.84;15273333;19;20473;-45
2023/07/03 11:44:50;;;;;;;4.38;1.48;;;;;;;19.99;64.76;97886.31;15271563;19;20490;-48
2023/07/03 11:50:28;;;;;;;3.92;1.60;;;;;;;20.31;63.44;97877.78;15269884;19;20031;-44
2023/07/03 11:55:54;;;;;;;3.55;1.83;;;;;;;20.39;64.78;97883.97;15269461;19;20025;-48
2023/07/03 12:01:29;;;;;;;3.00;1.50;;;;;;;20.40;63.42;97891.94;15275138;19;20010;-43
2023/07/03 12:06:58;;;;;;;6.22;1.67;;;;;;;20.27;60.05;97901.22;15269638;19;20028;-45
2023/07/03 12:12:26;;;;;;;4.38;1.60;;;;;;;20.41;62.09;97890.00;15270900;19;20027;-47
2023/07/03 12:17:51;;;;;;;4.43;1.65;;;;;;;20.49;59.73;97892.41;15272059;19;20500;-47
2023/07/03 12:23:33;;;;;;;4.53;1.60;;;;;;;20.31;59.46;97902.41;15269210;19;20003;-47
2023/07/03 12:29:11;;;;;;;4.93;1.60;;;;;;;20.41;59.59;97910.00;15271682;19;20014;-46
2023/07/03 12:34:35;;;;;;;4.97;1.90;;;;;;;20.47;57.91;97889.91;15268310;19;20487;-44
2023/07/03 12:40:04;;;;;;;7.05;1.63;;;;;;;20.56;58.64;97892.28;15267865;19;20474;-45
2023/07/03 12:45:32;;;;;;;6.03;1.98;;;;;;;20.73;60.20;97900.59;15268056;19;20013;-45
2023/07/03 12:50:58;;;;;;;6.00;2.15;;;;;;;21.01;56.21;97899.00;15265929;19;20400;-48
2023/07/03 12:56:29;;;;;;;3.80;1.70;;;;;;;20.85;58.03;97911.56;15265502;19;20025;-48
2023/07/03 13:01:55;;;;;;;4.50;1.60;;;;;;;20.84;56.29;97910.72;15266105;19;20006;-44
2023/07/03 13:07:22;;;;;;;3.58;1.67;;;;;;;21.02;59.45;97895.19;15264538;19;20038;-44
2023/07/03 13:13:07;;;;;;;5.35;2.00;;;;;;;20.95;57.03;97898.06;15278821;19;20023;-45
2023/07/03 13:18:34;;;;;;;4.00;1.50;;;;;;;20.77;57.03;97901.78;15276108;19;20538;-48
2023/07/03 13:24:07;;;;;;;3.63;1.83;;;;;;;20.92;56.89;97910.34;15274748;19;20016;-46
2023/07/03 13:29:39;;;;;;;4.68;1.85;;;;;;;20.72;58.66;97931.78;15282867;19;20014;-47
2023/07/03 13:35:07;;;;;;;3.47;1.60;;;;;;;20.71;57.02;97935.59;15276368;19;20614;-46
2023/07/03 13:40:34;;;;;;;6.03;1.95;;;;;;;20.50;56.34;97939.75;15222361;19;20013;-48
2023/07/03 13:46:08;;;;;;;5.22;1.73;;;;;;;20.82;56.39;97912.88;15277494;19;20013;-45
2023/07/03 13:51:33;;;;;;;3.33;1.70;;;;;;;21.12;54.76;97921.97;15279186;19;20018;-44
2023/07/03 13:56:57;;;;;;;3.33;1.50;;;;;;;21.49;53.79;97910.66;15272171;19;20360;-49
2023/07/03 14:02:25;;;;;;;4.50;1.40;;;;;;;21.95;53.12;97929.88;15278720;19;20680;-47
2023/07/03 14:08:06;;;;;;;2.65;1.40;;;;;;;21.67;53.05;97917.88;15273098;19;20026;-46
2023/07/03 14:13:30;;;;;;;2.95;1.60;;;;;;;21.81;52.27;97921.97;15278829;19;20134;-45
2023/07/03 14:18:58;;;;;;;5.43;1.85;;;;;;;21.66;52.27;97925.25;15278617;19;20006;-44
2023/07/03 14:24:26;;;;;;;4.35;1.58;;;;;;;21.57;51.89;97921.22;15279093;19;20026;-48
2023/07/03 14:29:51;;;;;;;3.47;1.60;;;;;;;21.34;52.26;97931.19;15276410;19;20009;-46
2023/07/03 14:35:19;;;;;;;4.10;1.48;;;;;;;21.39;53.43;97911.28;15273984;19;20016;-48
2023/07/03 14:40:51;;;;;;;3.15;1.42;;;;;;;21.60;53.98;97918.03;15274098;19;20082;-45
2023/07/03 14:46:16;;;;;;;3.80;1.35;;;;;;;21.95;52.98;97908.78;15273980;19;20014;-45
2023/07/03 14:51:43;;;;;;;4.22;1.60;;;;;;;22.24;54.00;97903.19;15276217;19;20306;-45
2023/07/03 14:57:09;;;;;;;4.60;1.50;;;;;;;22.36;53.48;97925.06;15271063;19;20021;-46
2023/07/03 15:02:35;;;;;;;4.53;1.42;;;;;;;22.01;54.34;97913.25;15273277;19;20029;-45
2023/07/03 15:08:02;;;;;;;3.28;1.50;;;;;;;21.92;53.03;97908.44;15272579;19;20098;-45
2023/07/03 15:13:27;;;;;;;3.58;1.60;;;;;;;21.82;54.54;97907.16;15271278;19;20013;-45
2023/07/03 15:18:51;;;;;;;2.80;1.50;;;;;;;21.55;54.20;97898.69;15274362;19;20363;-46
2023/07/03 15:24:20;;;;;;;3.10;1.42;;;;;;;21.61;54.43;97891.44;15273737;19;20488;-45
2023/07/03 15:29:45;;;;;;;4.53;1.70;;;;;;;21.51;55.08;97903.84;15274227;19;20010;-45
2023/07/03 15:35:10;;;;;;;3.05;1.58;;;;;;;21.29;55.84;97900.13;15264462;19;20013;-45
2023/07/03 15:40:38;;;;;;;4.88;1.60;;;;;;;21.27;56.50;97902.28;15273305;19;20031;-51
2023/07/03 15:46:12;;;;;;;2.33;1.40;;;;;;;21.27;55.87;97894.91;15271573;19;20014;-47
2023/07/03 15:51:38;;;;;;;3.65;1.55;;;;;;;21.28;56.05;97898.47;15273651;19;20082;-45
2023/07/03 15:57:05;;;;;;;4.47;1.60;;;;;;;21.24;57.59;97893.47;15273191;19;20010;-46
2023/07/03 16:02:31;;;;;;;3.35;1.42;;;;;;;21.30;56.65;97896.31;15270823;19;20248;-44
2023/07/03 16:07:58;;;;;;;2.53;1.50;;;;;;;21.30;59.23;97890.84;15270811;19;20017;-44
2023/07/03 16:13:28;;;;;;;3.90;1.50;;;;;;;21.21;58.41;97893.13;15272500;19;20011;-46
2023/07/03 16:18:55;;;;;;;4.53;1.63;;;;;;;21.02;57.32;97889.72;15274581;19;20347;-44
2023/07/03 16:24:20;;;;;;;3.53;1.60;;;;;;;21.01;58.08;97899.00;15271306;19;20085;-45
2023/07/03 16:29:51;;;;;;;3.47;1.50;;;;;;;21.01;59.99;97897.13;15272859;19;20031;-46
2023/07/03 16:35:16;;;;;;;2.40;1.20;;;;;;;20.91;60.15;97899.66;15269439;19;20337;-44
2023/07/03 16:40:47;;;;;;;3.30;1.35;;;;;;;20.90;58.68;97896.06;15266502;19;20022;-44
2023/07/03 16:46:20;;;;;;;2.42;1.40;;;;;;;20.93;59.63;97886.56;15266394;19;20019;-45
2023/07/03 16:51:44;;;;;;;4.65;1.52;;;;;;;21.13;60.19;97885.31;15270286;19;20019;-47
2023/07/03 16:57:09;;;;;;;3.03;1.40;;;;;;;21.30;58.69;97879.88;15267512;19;20018;-47
2023/07/03 17:02:36;;;;;;;4.40;1.70;;;;;;;21.42;61.15;97882.56;15266497;19;20021;-47
2023/07/03 17:08:01;;;;;;;3.13;1.40;;;;;;;21.74;58.41;97869.19;15267412;19;20385;-45
2023/07/03 17:13:25;;;;;;;2.67;1.50;;;;;;;21.77;58.97;97865.13;15263794;19;20078;-45
2023/07/03 17:18:52;;;;;;;3.30;1.38;;;;;;;21.72;58.32;97865.88;15268871;19;20476;-46
2023/07/03 17:24:18;;;;;;;3.58;1.70;;;;;;;21.48;60.28;97865.97;15267431;19;20018;-47
2023/07/03 17:29:44;;;;;;;4.63;1.60;;;;;;;21.33;60.70;97862.97;15263543;19;20014;-44
2023/07/03 17:35:11;;;;;;;4.38;1.50;;;;;;;21.29;62.49;97870.00;15262448;19;20011;-45
2023/07/03 17:40:39;;;;;;;3.73;1.47;;;;;;;21.44;63.87;97869.44;15105491;19;1007824;-45
2023/07/03 17:46:04;;;;;;;7.75;1.65;;;;;;;21.80;64.00;97868.22;15261593;19;20322;-45
2023/07/03 17:51:34;;;;;;;5.03;1.60;;;;;;;21.96;63.35;97873.94;15265147;19;20017;-45
2023/07/03 17:56:58;;;;;;;4.78;1.70;;;;;;;21.84;64.41;97860.31;15268402;19;20020;-45
2023/07/03 18:02:24;;;;;;;3.40;1.75;;;;;;;21.63;64.56;97864.63;15279928;19;20069;-46
2023/07/03 18:07:52;;;;;;;3.38;1.67;;;;;;;21.54;68.69;97859.50;15278362;19;20114;-44
2023/07/03 18:13:17;;;;;;;3.38;1.77;;;;;;;21.41;70.75;97865.28;15270916;19;20013;-45
2023/07/03 18:18:41;;;;;;;4.63;1.67;;;;;;;21.30;75.99;97867.00;15270726;19;20038;-48
2023/07/03 18:24:09;;;;;;;2.78;1.55;;;;;;;21.15;77.23;97864.78;15274681;19;20744;-46
2023/07/03 18:29:34;;;;;;;4.25;1.70;;;;;;;21.01;79.21;97868.88;15278656;19;20014;-44
2023/07/03 18:34:59;;;;;;;3.63;1.65;;;;;;;20.86;75.88;97864.78;15275920;19;20037;-44
2023/07/03 18:40:26;;;;;;;3.08;1.70;;;;;;;20.72;80.63;97875.13;15274648;19;20033;-45
2023/07/03 18:45:51;;;;;;;3.92;1.60;;;;;;;20.52;82.03;97867.28;15270431;19;20017;-44
2023/07/03 18:51:21;;;;;;;3.45;1.58;;;;;;;20.37;81.53;97872.44;15277197;19;20014;-45
2023/07/03 18:56:49;;;;;;;4.13;1.42;;;;;;;20.18;83.69;97872.53;15274175;19;20015;-46
2023/07/03 19:02:16;;;;;;;3.13;1.55;;;;;;;20.05;84.52;97872.78;15277739;19;20006;-47
2023/07/03 19:07:43;;;;;;;3.35;1.67;;;;;;;19.92;83.76;97882.03;15272536;19;20014;-45
2023/07/03 19:13:13;;;;;;;4.63;1.52;;;;;;;19.87;85.78;97885.47;15275769;19;20017;-44
2023/07/03 19:18:40;;;;;;;3.08;1.52;;;;;;;19.84;87.25;97886.75;15269841;19;20014;-44
2023/07/03 19:24:04;;;;;;;3.45;1.50;;;;;;;19.82;86.52;97898.97;15274851;19;20037;-48
2023/07/03 19:29:31;;;;;;;5.90;1.40;;;;;;;19.78;86.42;97897.78;15276052;19;20352;-45
2023/07/03 19:34:57;;;;;;;2.78;1.40;;;;;;;19.74;88.06;97900.16;15269362;19;20010;-48
2023/07/03 19:40:22;;;;;;;4.30;1.67;;;;;;;19.66;88.40;97901.31;15271632;19;20056;-46
2023/07/03 19:45:50;;;;;;;5.82;1.70;;;;;;;19.62;89.60;97905.56;15270143;19;20471;-46
2023/07/03 19:51:15;;;;;;;2.53;1.42;;;;;;;19.57;93.39;97908.19;15245521;19;20082;-45
2023/07/03 19:56:39;;;;;;;2.65;1.55;;;;;;;19.49;99.05;97909.34;15268217;19;20956;-46
2023/07/03 20:02:07;;;;;;;3.53;1.80;;;;;;;19.42;100.00;97910.50;15270162;19;20094;-45
2023/07/03 20:07:31;;;;;;;3.88;1.60;;;;;;;19.34;100.00;97909.75;15268889;19;20031;-45
2023/07/03 20:12:56;;;;;;;2.97;1.48;;;;;;;19.28;100.00;97920.78;15269373;19;20017;-47
2023/07/03 20:18:23;;;;;;;2.88;1.48;;;;;;;19.17;100.00;97915.00;15267939;19;20018;-44
2023/07/03 20:23:49;;;;;;;5.50;1.83;;;;;;;19.06;100.00;97913.88;15263861;19;20010;-48
2023/07/03 20:29:14;;;;;;;2.78;1.50;;;;;;;18.95;100.00;97920.13;15267617;19;20013;-44
2023/07/03 20:34:44;;;;;;;3.55;1.55;;;;;;;18.85;100.00;97915.16;15265422;19;20007;-45
2023/07/03 20:40:10;;;;;;;2.35;1.40;;;;;;;18.71;100.00;97911.75;15265540;19;20014;-45
2023/07/03 20:45:35;;;;;;;2.75;1.50;;;;;;;18.61;100.00;97919.63;15264847;19;20078;-45
2023/07/03 20:51:11;;;;;;;3.08;1.63;;;;;;;18.49;100.00;97908.59;15267148;19;20359;-48
2023/07/03 20:56:39;;;;;;;2.80;1.70;;;;;;;18.35;100.00;97907.91;15261243;19;20026;-44
2023/07/03 21:02:04;;;;;;;2.55;1.38;;;;;;;18.16;100.00;97913.34;15265514;19;20546;-45
2023/07/03 21:07:33;;;;;;;4.63;1.70;;;;;;;18.03;100.00;97910.72;15263433;19;20018;-44
2023/07/03 21:12:58;;;;;;;3.28;1.50;;;;;;;17.90;100.00;97916.25;15270114;19;20011;-44
2023/07/03 21:18:24;;;;;;;2.53;1.40;;;;;;;17.70;100.00;97907.16;15265988;19;20015;-46
2023/07/03 21:23:58;;;;;;;2.53;1.40;;;;;;;17.51;100.00;97908.94;15263969;19;20786;-45
2023/07/03 21:29:23;;;;;;;2.35;1.60;;;;;;;17.35;100.00;97914.88;15263175;19;20487;-45
2023/07/03 21:34:41;;;;;;;8.07;1.77;;;;;;;17.22;100.00;97913.94;15279606;19;20014;-45
2023/07/03 21:40:09;;;;;;;2.72;1.52;;;;;;;17.10;100.00;97911.03;15274097;19;20022;-45
2023/07/03 21:45:35;;;;;;;3.33;1.50;;;;;;;17.01;100.00;97919.66;15281989;19;20373;-44
2023/07/03 21:51:01;;;;;;;2.40;1.50;;;;;;;16.92;100.00;97917.16;15283447;19;20017;-44
2023/07/03 21:56:30;;;;;;;2.70;1.45;;;;;;;16.86;100.00;97915.31;15279573;19;20031;-44
2023/07/03 22:01:55;;;;;;;3.53;1.50;;;;;;;16.76;100.00;97915.75;15279263;19;20031;-44
2023/07/03 22:07:21;;;;;;;3.20;1.40;;;;;;;16.69;100.00;97916.81;15277094;19;20041;-44
2023/07/03 22:12:48;;;;;;;2.70;1.42;;;;;;;16.59;100.00;97928.97;15281281;19;20972;-44
2023/07/03 22:18:13;;;;;;;3.03;1.50;;;;;;;16.52;100.00;97938.19;15276997;19;20357;-47
2023/07/03 22:23:37;;;;;;;4.63;1.40;;;;;;;16.43;100.00;97929.41;15280530;19;20094;-46
2023/07/03 22:29:05;;;;;;;3.33;1.55;;;;;;;16.35;100.00;97921.47;15283122;19;20022;-44
2023/07/03 22:34:30;;;;;;;6.15;1.50;;;;;;;16.29;100.00;97926.69;15276886;19;20018;-45
2023/07/03 22:40:03;;;;;;;2.75;1.52;;;;;;;16.20;100.00;97919.81;15279126;19;20023;-44
2023/07/03 22:45:32;;;;;;;3.38;1.48;;;;;;;16.11;100.00;97916.47;15278357;19;20007;-47
2023/07/03 22:51:02;;;;;;;3.97;1.52;;;;;;;16.04;100.00;97920.25;15279529;19;20014;-45
2023/07/03 22:56:28;;;;;;;6.55;1.85;;;;;;;15.93;100.00;97925.25;15276992;19;20479;-45
2023/07/03 23:01:55;;;;;;;3.33;1.50;;;;;;;15.83;100.00;97924.78;15278485;19;20032;-45
2023/07/03 23:07:21;;;;;;;3.42;1.58;;;;;;;15.68;100.00;97917.69;15273573;19;20864;-47
2023/07/03 23:12:45;;;;;;;5.72;1.70;;;;;;;15.60;100.00;97926.00;15277669;19;20361;-43
2023/07/03 23:18:13;;;;;;;3.53;1.70;;;;;;;15.54;100.00;97921.41;15274925;19;20354;-45
2023/07/03 23:23:39;;;;;;;3.83;1.77;;;;;;;15.44;100.00;97920.97;15276563;19;20551;-49
2023/07/03 23:29:11;;;;;;;2.17;1.27;;;;;;;15.38;100.00;97920.72;15275305;19;20094;-44
2023/07/03 23:34:38;;;;;;;3.90;1.70;;;;;;;15.29;100.00;97924.69;15274799;19;20011;-44
2023/07/03 23:40:05;;;;;;;2.47;1.33;;;;;;;15.18;100.00;97925.28;15269944;19;20023;-45
2023/07/03 23:45:32;;;;;;;5.82;1.50;;;;;;;15.04;100.00;97927.94;15275202;19;20035;-43
2023/07/03 23:51:04;;;;;;;3.63;1.80;;;;;;;14.90;100.00;97923.47;15273522;19;20017;-45
2023/07/03 23:56:30;;;;;;;2.75;1.35;;;;;;;14.79;100.00;97923.00;15269659;19;20030;-45
